sensor_id;sensor_type;location;lat;lon;timestamp;pressure;altitude;pressure_sealevel;temperature;humidity
58239;BME280;44037;55.638;37.356;2022-07-29T00:00:52;99204.59;;;15.41;85.38
58239;BME280;44037;55.638;37.356;2022-07-29T00:03:19;99211.56;;;15.39;85.46
58239;BME280;44037;55.638;37.356;2022-07-29T00:05:46;99204.72;;;15.35;85.57
58239;BME280;44037;55.638;37.356;2022-07-29T00:08:12;99211.69;;;15.33;85.90
58239;BME280;44037;55.638;37.356;2022-07-29T00:10:41;99210.03;;;15.29;86.05
58239;BME280;44037;55.638;37.356;2022-07-29T00:13:09;99217.06;;;15.25;86.35
58239;BME280;44037;55.638;37.356;2022-07-29T00:15:36;99217.09;;;15.22;86.61
58239;BME280;44037;55.638;37.356;2022-07-29T00:18:04;99216.25;;;15.20;86.35
58239;BME280;44037;55.638;37.356;2022-07-29T00:20:31;99220.66;;;15.16;86.35
58239;BME280;44037;55.638;37.356;2022-07-29T00:22:58;99218.09;;;15.13;86.51
58239;BME280;44037;55.638;37.356;2022-07-29T00:25:25;99219.91;;;15.11;86.64
58239;BME280;44037;55.638;37.356;2022-07-29T00:27:52;99226.00;;;15.09;86.92
58239;BME280;44037;55.638;37.356;2022-07-29T00:30:20;99223.41;;;15.09;87.34
58239;BME280;44037;55.638;37.356;2022-07-29T00:32:48;99231.22;;;15.09;87.21
58239;BME280;44037;55.638;37.356;2022-07-29T00:35:14;99223.47;;;15.05;86.99
58239;BME280;44037;55.638;37.356;2022-07-29T00:37:59;99220.91;;;15.02;87.25
58239;BME280;44037;55.638;37.356;2022-07-29T00:40:26;99223.53;;;14.99;87.15
58239;BME280;44037;55.638;37.356;2022-07-29T00:42:53;99220.09;;;14.97;87.35
58239;BME280;44037;55.638;37.356;2022-07-29T00:45:22;99227.06;;;14.97;87.90
58239;BME280;44037;55.638;37.356;2022-07-29T00:47:49;99231.44;;;14.95;87.56
58239;BME280;44037;55.638;37.356;2022-07-29T00:50:16;99234.09;;;14.92;87.34
58239;BME280;44037;55.638;37.356;2022-07-29T00:52:43;99234.13;;;14.88;87.77
58239;BME280;44037;55.638;37.356;2022-07-29T00:55:14;99240.22;;;14.87;87.76
58239;BME280;44037;55.638;37.356;2022-07-29T00:57:42;99242.03;;;14.85;87.81
58239;BME280;44037;55.638;37.356;2022-07-29T01:00:11;99244.63;;;14.85;88.41
58239;BME280;44037;55.638;37.356;2022-07-29T01:02:39;99245.56;;;14.81;88.16
58239;BME280;44037;55.638;37.356;2022-07-29T01:05:07;99247.31;;;14.79;88.43
58239;BME280;44037;55.638;37.356;2022-07-29T01:07:35;99239.56;;;14.74;88.12
58239;BME280;44037;55.638;37.356;2022-07-29T01:10:03;99250.00;;;14.74;88.38
58239;BME280;44037;55.638;37.356;2022-07-29T01:12:33;99243.97;;;14.71;88.51
58239;BME280;44037;55.638;37.356;2022-07-29T01:15:02;99238.75;;;14.69;88.35
58239;BME280;44037;55.638;37.356;2022-07-29T01:17:36;99249.22;;;14.65;88.99
58239;BME280;44037;55.638;37.356;2022-07-29T01:20:12;99248.38;;;14.64;89.05
58239;BME280;44037;55.638;37.356;2022-07-29T01:22:47;99243.19;;;14.61;89.26
58239;BME280;44037;55.638;37.356;2022-07-29T01:25:32;99244.91;;;14.62;89.05
58239;BME280;44037;55.638;37.356;2022-07-29T01:28:19;99251.88;;;14.62;89.18
58239;BME280;44037;55.638;37.356;2022-07-29T01:30:51;99246.72;;;14.58;89.25
58239;BME280;44037;55.638;37.356;2022-07-29T01:33:22;99254.53;;;14.58;89.17
58239;BME280;44037;55.638;37.356;2022-07-29T01:36:11;99249.31;;;14.57;89.73
58239;BME280;44037;55.638;37.356;2022-07-29T01:38:42;99249.34;;;14.55;89.31
58239;BME280;44037;55.638;37.356;2022-07-29T01:41:13;99251.13;;;14.53;89.52
58239;BME280;44037;55.638;37.356;2022-07-29T01:43:44;99240.72;;;14.52;89.35
58239;BME280;44037;55.638;37.356;2022-07-29T01:46:21;99258.06;;;14.54;88.93
58239;BME280;44037;55.638;37.356;2022-07-29T01:48:54;99245.91;;;14.53;89.14
58239;BME280;44037;55.638;37.356;2022-07-29T01:51:27;99247.59;;;14.56;89.31
58239;BME280;44037;55.638;37.356;2022-07-29T01:54:01;99250.19;;;14.56;89.16
58239;BME280;44037;55.638;37.356;2022-07-29T01:56:31;99250.19;;;14.57;89.14
58239;BME280;44037;55.638;37.356;2022-07-29T01:58:59;99244.09;;;14.58;88.89
58239;BME280;44037;55.638;37.356;2022-07-29T02:01:30;99247.56;;;14.61;88.82
58239;BME280;44037;55.638;37.356;2022-07-29T02:03:59;99251.00;;;14.61;88.59
58239;BME280;44037;55.638;37.356;2022-07-29T02:06:32;99255.38;;;14.61;88.49
58239;BME280;44037;55.638;37.356;2022-07-29T02:09:00;99250.97;;;14.63;88.67
58239;BME280;44037;55.638;37.356;2022-07-29T02:11:29;99251.84;;;14.63;88.52
58239;BME280;44037;55.638;37.356;2022-07-29T02:13:58;99251.81;;;14.65;88.36
58239;BME280;44037;55.638;37.356;2022-07-29T02:16:30;99256.16;;;14.69;88.48
58239;BME280;44037;55.638;37.356;2022-07-29T02:19:01;99253.44;;;14.75;87.69
58239;BME280;44037;55.638;37.356;2022-07-29T02:21:29;99254.22;;;14.83;86.86
58239;BME280;44037;55.638;37.356;2022-07-29T02:23:59;99257.41;;;15.01;86.68
58239;BME280;44037;55.638;37.356;2022-07-29T02:26:27;99253.69;;;15.17;86.49
58239;BME280;44037;55.638;37.356;2022-07-29T02:28:57;99250.00;;;15.31;85.41
58239;BME280;44037;55.638;37.356;2022-07-29T02:31:33;99252.31;;;15.48;84.84
58239;BME280;44037;55.638;37.356;2022-07-29T02:34:02;99253.88;;;15.58;81.80
58239;BME280;44037;55.638;37.356;2022-07-29T02:36:31;99258.09;;;15.67;81.70
58239;BME280;44037;55.638;37.356;2022-07-29T02:38:59;99254.41;;;15.77;81.61
58239;BME280;44037;55.638;37.356;2022-07-29T02:41:30;99254.31;;;15.85;80.53
58239;BME280;44037;55.638;37.356;2022-07-29T02:44:02;99255.00;;;15.95;80.20
58239;BME280;44037;55.638;37.356;2022-07-29T02:46:34;99251.28;;;16.07;79.93
58239;BME280;44037;55.638;37.356;2022-07-29T02:49:09;99243.25;;;16.18;78.45
58239;BME280;44037;55.638;37.356;2022-07-29T02:51:42;99253.69;;;16.18;77.20
58239;BME280;44037;55.638;37.356;2022-07-29T02:54:11;99260.44;;;16.28;77.85
58239;BME280;44037;55.638;37.356;2022-07-29T02:56:44;99258.47;;;16.39;77.96
58239;BME280;44037;55.638;37.356;2022-07-29T02:59:14;99249.47;;;16.54;78.20
58239;BME280;44037;55.638;37.356;2022-07-29T03:01:45;99247.31;;;16.73;76.74
58239;BME280;44037;55.638;37.356;2022-07-29T03:04:13;99250.47;;;16.88;75.47
58239;BME280;44037;55.638;37.356;2022-07-29T03:06:42;99251.25;;;16.92;73.08
58239;BME280;44037;55.638;37.356;2022-07-29T03:09:10;99243.41;;;16.92;73.61
58239;BME280;44037;55.638;37.356;2022-07-29T03:11:38;99243.41;;;16.92;73.88
58239;BME280;44037;55.638;37.356;2022-07-29T03:14:06;99242.38;;;17.00;74.83
58239;BME280;44037;55.638;37.356;2022-07-29T03:16:34;99246.31;;;17.17;73.47
58239;BME280;44037;55.638;37.356;2022-07-29T03:19:04;99247.19;;;17.17;71.63
58239;BME280;44037;55.638;37.356;2022-07-29T03:21:32;99248.22;;;17.12;72.22
58239;BME280;44037;55.638;37.356;2022-07-29T03:24:00;99248.91;;;17.18;73.79
58239;BME280;44037;55.638;37.356;2022-07-29T03:26:27;99240.78;;;17.29;73.21
58239;BME280;44037;55.638;37.356;2022-07-29T03:28:54;99243.16;;;17.40;72.78
58239;BME280;44037;55.638;37.356;2022-07-29T03:31:21;99240.22;;;17.53;73.25
58239;BME280;44037;55.638;37.356;2022-07-29T03:33:48;99245.28;;;17.59;70.80
58239;BME280;44037;55.638;37.356;2022-07-29T03:36:17;99244.63;;;17.50;71.18
58239;BME280;44037;55.638;37.356;2022-07-29T03:38:44;99248.78;;;17.59;71.03
58239;BME280;44037;55.638;37.356;2022-07-29T03:41:13;99249.47;;;17.66;71.17
58239;BME280;44037;55.638;37.356;2022-07-29T03:43:41;99250.03;;;17.77;71.22
58239;BME280;44037;55.638;37.356;2022-07-29T03:46:10;99255.72;;;17.93;71.62
58239;BME280;44037;55.638;37.356;2022-07-29T03:48:42;99256.50;;;17.99;67.80
58239;BME280;44037;55.638;37.356;2022-07-29T03:51:10;99257.72;;;17.85;67.27
58239;BME280;44037;55.638;37.356;2022-07-29T03:53:39;99257.72;;;17.84;69.05
58239;BME280;44037;55.638;37.356;2022-07-29T03:56:06;99260.13;;;17.93;70.16
58239;BME280;44037;55.638;37.356;2022-07-29T03:58:34;99258.03;;;18.07;68.76
58239;BME280;44037;55.638;37.356;2022-07-29T04:01:02;99269.00;;;18.20;69.39
58239;BME280;44037;55.638;37.356;2022-07-29T04:03:29;99258.25;;;18.30;66.16
58239;BME280;44037;55.638;37.356;2022-07-29T04:06:01;99258.47;;;18.22;65.93
58239;BME280;44037;55.638;37.356;2022-07-29T04:08:28;99266.31;;;18.23;67.68
58239;BME280;44037;55.638;37.356;2022-07-29T04:10:56;99267.47;;;18.43;68.24
58239;BME280;44037;55.638;37.356;2022-07-29T04:13:24;99266.75;;;18.68;67.34
58239;BME280;44037;55.638;37.356;2022-07-29T04:15:51;99262.69;;;18.87;66.87
58239;BME280;44037;55.638;37.356;2022-07-29T04:18:18;99263.09;;;19.03;65.87
58239;BME280;44037;55.638;37.356;2022-07-29T04:20:45;99264.06;;;19.01;63.23
58239;BME280;44037;55.638;37.356;2022-07-29T04:23:12;99263.72;;;18.82;63.59
58239;BME280;44037;55.638;37.356;2022-07-29T04:25:40;99268.06;;;18.83;66.49
58239;BME280;44037;55.638;37.356;2022-07-29T04:28:09;99272.00;;;18.98;64.91
58239;BME280;44037;55.638;37.356;2022-07-29T04:30:37;99269.00;;;19.10;64.41
58239;BME280;44037;55.638;37.356;2022-07-29T04:33:06;99266.97;;;19.18;63.81
58239;BME280;44037;55.638;37.356;2022-07-29T04:35:35;99269.44;;;19.23;62.39
58239;BME280;44037;55.638;37.356;2022-07-29T04:38:03;99268.19;;;19.08;62.47
58239;BME280;44037;55.638;37.356;2022-07-29T04:40:30;99278.06;;;19.00;62.94
58239;BME280;44037;55.638;37.356;2022-07-29T04:42:59;99277.06;;;19.04;63.62
58239;BME280;44037;55.638;37.356;2022-07-29T04:45:28;99278.50;;;19.14;63.93
58239;BME280;44037;55.638;37.356;2022-07-29T04:47:55;99280.81;;;19.24;63.97
58239;BME280;44037;55.638;37.356;2022-07-29T04:50:22;99275.47;;;19.27;61.69
58239;BME280;44037;55.638;37.356;2022-07-29T04:52:49;99277.69;;;19.12;61.49
58239;BME280;44037;55.638;37.356;2022-07-29T04:55:16;99280.66;;;19.01;63.02
58239;BME280;44037;55.638;37.356;2022-07-29T04:57:43;99279.69;;;19.04;63.65
58239;BME280;44037;55.638;37.356;2022-07-29T05:00:13;99282.94;;;19.12;64.00
58239;BME280;44037;55.638;37.356;2022-07-29T05:02:42;99275.50;;;19.25;65.43
58239;BME280;44037;55.638;37.356;2022-07-29T05:05:09;99280.22;;;19.42;62.97
58239;BME280;44037;55.638;37.356;2022-07-29T05:07:36;99274.38;;;19.34;61.69
58239;BME280;44037;55.638;37.356;2022-07-29T05:10:04;99269.41;;;19.25;63.70
58239;BME280;44037;55.638;37.356;2022-07-29T05:12:32;99265.72;;;19.30;64.90
58239;BME280;44037;55.638;37.356;2022-07-29T05:14:59;99266.16;;;19.43;63.12
58239;BME280;44037;55.638;37.356;2022-07-29T05:17:26;99273.69;;;19.54;62.18
58239;BME280;44037;55.638;37.356;2022-07-29T05:19:54;99272.63;;;19.60;62.20
58239;BME280;44037;55.638;37.356;2022-07-29T05:22:22;99271.00;;;19.56;61.30
58239;BME280;44037;55.638;37.356;2022-07-29T05:24:48;99279.22;;;19.46;61.61
58239;BME280;44037;55.638;37.356;2022-07-29T05:27:16;99274.78;;;19.48;62.25
58239;BME280;44037;55.638;37.356;2022-07-29T05:29:43;99279.06;;;19.51;62.09
58239;BME280;44037;55.638;37.356;2022-07-29T05:32:10;99262.97;;;19.60;61.82
58239;BME280;44037;55.638;37.356;2022-07-29T05:34:37;99267.28;;;19.63;61.20
58239;BME280;44037;55.638;37.356;2022-07-29T05:37:05;99269.19;;;19.58;61.42
58239;BME280;44037;55.638;37.356;2022-07-29T05:39:32;99265.97;;;19.49;60.98
58239;BME280;44037;55.638;37.356;2022-07-29T05:41:59;99267.88;;;19.44;61.75
58239;BME280;44037;55.638;37.356;2022-07-29T05:44:26;99263.19;;;19.54;61.77
58239;BME280;44037;55.638;37.356;2022-07-29T05:46:53;99270.00;;;19.60;62.92
58239;BME280;44037;55.638;37.356;2022-07-29T05:49:20;99264.22;;;19.75;63.44
58239;BME280;44037;55.638;37.356;2022-07-29T05:51:47;99270.41;;;20.00;59.49
58239;BME280;44037;55.638;37.356;2022-07-29T05:54:16;99263.88;;;20.12;58.61
58239;BME280;44037;55.638;37.356;2022-07-29T05:56:43;99255.69;;;20.19;57.87
58239;BME280;44037;55.638;37.356;2022-07-29T05:59:10;99255.59;;;20.22;58.62
58239;BME280;44037;55.638;37.356;2022-07-29T06:01:37;99260.50;;;20.32;58.64
58239;BME280;44037;55.638;37.356;2022-07-29T06:04:05;99265.94;;;20.51;56.68
58239;BME280;44037;55.638;37.356;2022-07-29T06:06:33;99256.78;;;20.61;56.88
58239;BME280;44037;55.638;37.356;2022-07-29T06:09:00;99270.03;;;20.58;54.87
58239;BME280;44037;55.638;37.356;2022-07-29T06:11:29;99257.34;;;20.46;55.37
58239;BME280;44037;55.638;37.356;2022-07-29T06:13:56;99258.44;;;20.40;56.27
58239;BME280;44037;55.638;37.356;2022-07-29T06:16:23;99254.91;;;20.41;56.18
58239;BME280;44037;55.638;37.356;2022-07-29T06:18:51;99256.69;;;20.40;56.17
58239;BME280;44037;55.638;37.356;2022-07-29T06:21:18;99262.50;;;20.49;55.83
58239;BME280;44037;55.638;37.356;2022-07-29T06:23:45;99260.09;;;20.66;52.29
58239;BME280;44037;55.638;37.356;2022-07-29T06:26:12;99265.59;;;20.60;52.07
58239;BME280;44037;55.638;37.356;2022-07-29T06:28:40;99257.75;;;20.59;52.84
58239;BME280;44037;55.638;37.356;2022-07-29T06:31:07;99261.53;;;20.51;53.47
58239;BME280;44037;55.638;37.356;2022-07-29T06:33:34;99259.69;;;20.53;54.07
58239;BME280;44037;55.638;37.356;2022-07-29T06:36:03;99252.59;;;20.55;53.15
58239;BME280;44037;55.638;37.356;2022-07-29T06:38:30;99248.06;;;20.59;52.12
58239;BME280;44037;55.638;37.356;2022-07-29T06:40:58;99251.81;;;20.77;52.47
58239;BME280;44037;55.638;37.356;2022-07-29T06:43:31;99253.66;;;20.97;51.68
58239;BME280;44037;55.638;37.356;2022-07-29T06:46:02;99241.38;;;21.18;51.39
58239;BME280;44037;55.638;37.356;2022-07-29T06:48:29;99239.13;;;21.52;50.23
58239;BME280;44037;55.638;37.356;2022-07-29T06:50:57;99239.16;;;21.73;47.70
58239;BME280;44037;55.638;37.356;2022-07-29T06:53:24;99248.00;;;21.49;48.02
58239;BME280;44037;55.638;37.356;2022-07-29T06:55:51;99245.63;;;21.43;48.32
58239;BME280;44037;55.638;37.356;2022-07-29T06:58:18;99245.53;;;21.46;48.99
58239;BME280;44037;55.638;37.356;2022-07-29T07:00:46;99244.19;;;21.57;48.70
58239;BME280;44037;55.638;37.356;2022-07-29T07:03:15;99238.34;;;21.71;49.31
58239;BME280;44037;55.638;37.356;2022-07-29T07:05:42;99244.44;;;21.73;49.58
58239;BME280;44037;55.638;37.356;2022-07-29T07:08:10;99244.13;;;21.58;49.39
58239;BME280;44037;55.638;37.356;2022-07-29T07:10:38;99241.97;;;21.47;50.47
58239;BME280;44037;55.638;37.356;2022-07-29T07:13:05;99249.41;;;21.58;50.56
58239;BME280;44037;55.638;37.356;2022-07-29T07:15:32;99244.19;;;21.79;49.83
58239;BME280;44037;55.638;37.356;2022-07-29T07:17:59;99249.13;;;22.06;48.12
58239;BME280;44037;55.638;37.356;2022-07-29T07:20:28;99246.47;;;22.27;46.88
58239;BME280;44037;55.638;37.356;2022-07-29T07:22:55;99245.47;;;22.29;46.82
58239;BME280;44037;55.638;37.356;2022-07-29T07:25:22;99247.50;;;22.43;46.68
58239;BME280;44037;55.638;37.356;2022-07-29T07:27:49;99243.19;;;22.40;48.17
58239;BME280;44037;55.638;37.356;2022-07-29T07:30:16;99243.31;;;22.37;48.09
58239;BME280;44037;55.638;37.356;2022-07-29T07:32:43;99244.31;;;22.35;46.53
58239;BME280;44037;55.638;37.356;2022-07-29T07:35:10;99252.16;;;22.17;47.59
58239;BME280;44037;55.638;37.356;2022-07-29T07:37:39;99244.53;;;22.30;48.60
58239;BME280;44037;55.638;37.356;2022-07-29T07:40:08;99249.28;;;22.62;47.03
58239;BME280;44037;55.638;37.356;2022-07-29T07:42:37;99245.34;;;22.90;45.12
58239;BME280;44037;55.638;37.356;2022-07-29T07:45:05;99248.78;;;22.73;45.39
58239;BME280;44037;55.638;37.356;2022-07-29T07:47:34;99251.78;;;22.46;45.74
58239;BME280;44037;55.638;37.356;2022-07-29T07:50:03;99252.34;;;22.13;43.99
58239;BME280;44037;55.638;37.356;2022-07-29T07:52:30;99262.53;;;22.01;45.14
58239;BME280;44037;55.638;37.356;2022-07-29T07:54:58;99255.69;;;21.97;46.27
58239;BME280;44037;55.638;37.356;2022-07-29T07:57:25;99262.84;;;21.93;46.63
58239;BME280;44037;55.638;37.356;2022-07-29T07:59:52;99261.69;;;22.01;46.02
58239;BME280;44037;55.638;37.356;2022-07-29T08:02:19;99264.50;;;22.17;45.98
58239;BME280;44037;55.638;37.356;2022-07-29T08:04:46;99262.47;;;22.43;44.91
58239;BME280;44037;55.638;37.356;2022-07-29T08:07:14;99256.75;;;22.71;43.75
58239;BME280;44037;55.638;37.356;2022-07-29T08:09:41;99258.06;;;23.18;43.57
58239;BME280;44037;55.638;37.356;2022-07-29T08:12:09;99261.44;;;23.57;40.96
58239;BME280;44037;55.638;37.356;2022-07-29T08:14:36;99262.31;;;23.57;40.85
58239;BME280;44037;55.638;37.356;2022-07-29T08:17:03;99255.31;;;23.56;40.95
58239;BME280;44037;55.638;37.356;2022-07-29T08:19:30;99266.72;;;23.57;41.02
58239;BME280;44037;55.638;37.356;2022-07-29T08:21:57;99257.25;;;23.53;41.90
58239;BME280;44037;55.638;37.356;2022-07-29T08:24:24;99255.25;;;23.40;42.51
58239;BME280;44037;55.638;37.356;2022-07-29T08:27:11;99251.66;;;23.41;41.68
58239;BME280;44037;55.638;37.356;2022-07-29T08:29:39;99257.94;;;23.39;41.57
58239;BME280;44037;55.638;37.356;2022-07-29T08:32:06;99252.28;;;23.46;42.05
58239;BME280;44037;55.638;37.356;2022-07-29T08:34:33;99246.06;;;23.47;41.50
58239;BME280;44037;55.638;37.356;2022-07-29T08:37:00;99250.88;;;23.57;40.38
58239;BME280;44037;55.638;37.356;2022-07-29T08:39:27;99249.41;;;23.34;39.36
58239;BME280;44037;55.638;37.356;2022-07-29T08:41:57;99246.94;;;23.11;40.91
58239;BME280;44037;55.638;37.356;2022-07-29T08:44:25;99249.34;;;23.16;41.05
58239;BME280;44037;55.638;37.356;2022-07-29T08:46:52;99254.28;;;23.24;41.80
58239;BME280;44037;55.638;37.356;2022-07-29T08:49:19;99243.66;;;23.06;40.37
58239;BME280;44037;55.638;37.356;2022-07-29T08:51:47;99247.66;;;22.96;40.48
58239;BME280;44037;55.638;37.356;2022-07-29T08:54:17;99249.44;;;23.14;41.83
58239;BME280;44037;55.638;37.356;2022-07-29T08:56:48;99247.91;;;23.45;41.43
58239;BME280;44037;55.638;37.356;2022-07-29T08:59:16;99243.38;;;23.83;40.18
58239;BME280;44037;55.638;37.356;2022-07-29T09:01:48;99247.69;;;23.68;39.54
58239;BME280;44037;55.638;37.356;2022-07-29T09:04:15;99251.28;;;23.49;40.32
58239;BME280;44037;55.638;37.356;2022-07-29T09:06:45;99248.38;;;23.36;41.41
58239;BME280;44037;55.638;37.356;2022-07-29T09:09:13;99245.16;;;23.12;42.50
58239;BME280;44037;55.638;37.356;2022-07-29T09:11:40;99256.47;;;22.96;39.24
58239;BME280;44037;55.638;37.356;2022-07-29T09:14:08;99251.22;;;22.77;39.45
58239;BME280;44037;55.638;37.356;2022-07-29T09:16:51;99257.28;;;22.79;40.48
58239;BME280;44037;55.638;37.356;2022-07-29T09:19:27;99250.16;;;22.99;40.13
58239;BME280;44037;55.638;37.356;2022-07-29T09:21:55;99246.66;;;23.17;39.98
58239;BME280;44037;55.638;37.356;2022-07-29T09:24:26;99245.66;;;23.20;39.30
58239;BME280;44037;55.638;37.356;2022-07-29T09:26:53;99251.28;;;23.12;40.24
58239;BME280;44037;55.638;37.356;2022-07-29T09:29:22;99250.25;;;23.34;39.81
58239;BME280;44037;55.638;37.356;2022-07-29T09:31:52;99258.97;;;23.54;39.53
58239;BME280;44037;55.638;37.356;2022-07-29T09:34:23;99248.84;;;23.62;38.45
58239;BME280;44037;55.638;37.356;2022-07-29T09:36:52;99251.72;;;23.40;38.10
58239;BME280;44037;55.638;37.356;2022-07-29T09:39:30;99257.25;;;23.35;39.24
58239;BME280;44037;55.638;37.356;2022-07-29T09:41:59;99251.56;;;23.78;38.56
58239;BME280;44037;55.638;37.356;2022-07-29T09:44:26;99261.47;;;24.26;37.85
58239;BME280;44037;55.638;37.356;2022-07-29T09:46:59;99254.06;;;24.48;35.71
58239;BME280;44037;55.638;37.356;2022-07-29T09:49:31;99251.69;;;24.44;36.25
58239;BME280;44037;55.638;37.356;2022-07-29T09:52:01;99257.31;;;24.37;35.77
58239;BME280;44037;55.638;37.356;2022-07-29T09:54:30;99262.56;;;24.21;36.12
58239;BME280;44037;55.638;37.356;2022-07-29T09:57:02;99254.66;;;24.04;36.45
58239;BME280;44037;55.638;37.356;2022-07-29T09:59:30;99252.88;;;24.04;36.36
58239;BME280;44037;55.638;37.356;2022-07-29T10:01:58;99249.59;;;24.17;36.79
58239;BME280;44037;55.638;37.356;2022-07-29T10:04:37;99256.25;;;24.24;37.28
58239;BME280;44037;55.638;37.356;2022-07-29T10:07:05;99254.53;;;24.23;37.10
58239;BME280;44037;55.638;37.356;2022-07-29T10:09:32;99253.81;;;24.03;37.84
58239;BME280;44037;55.638;37.356;2022-07-29T10:12:04;99248.56;;;23.68;38.33
58239;BME280;44037;55.638;37.356;2022-07-29T10:14:32;99257.66;;;23.45;38.73
58239;BME280;44037;55.638;37.356;2022-07-29T10:17:02;99262.25;;;23.41;39.28
58239;BME280;44037;55.638;37.356;2022-07-29T10:19:30;99260.44;;;23.59;39.16
58239;BME280;44037;55.638;37.356;2022-07-29T10:21:58;99254.84;;;23.66;37.52
58239;BME280;44037;55.638;37.356;2022-07-29T10:24:26;99251.94;;;23.88;36.64
58239;BME280;44037;55.638;37.356;2022-07-29T10:26:54;99254.88;;;24.17;37.13
58239;BME280;44037;55.638;37.356;2022-07-29T10:29:22;99253.88;;;24.35;37.40
58239;BME280;44037;55.638;37.356;2022-07-29T10:31:55;99256.47;;;24.37;36.99
58239;BME280;44037;55.638;37.356;2022-07-29T10:34:36;99261.53;;;24.24;37.44
58239;BME280;44037;55.638;37.356;2022-07-29T10:37:17;99257.69;;;24.14;37.74
58239;BME280;44037;55.638;37.356;2022-07-29T10:39:54;99261.16;;;24.14;38.05
58239;BME280;44037;55.638;37.356;2022-07-29T10:42:25;99247.91;;;24.32;37.49
58239;BME280;44037;55.638;37.356;2022-07-29T10:44:54;99245.72;;;24.56;37.18
58239;BME280;44037;55.638;37.356;2022-07-29T10:47:23;99238.19;;;24.64;36.49
58239;BME280;44037;55.638;37.356;2022-07-29T10:50:02;99244.63;;;24.92;36.67
58239;BME280;44037;55.638;37.356;2022-07-29T10:52:54;99234.00;;;25.08;36.48
58239;BME280;44037;55.638;37.356;2022-07-29T10:55:33;99236.97;;;25.02;35.64
58239;BME280;44037;55.638;37.356;2022-07-29T10:58:12;99238.88;;;24.68;36.24
58239;BME280;44037;55.638;37.356;2022-07-29T11:00:40;99247.59;;;24.54;36.31
58239;BME280;44037;55.638;37.356;2022-07-29T11:03:08;99239.13;;;24.63;36.57
58239;BME280;44037;55.638;37.356;2022-07-29T11:06:00;99250.34;;;24.84;37.38
58239;BME280;44037;55.638;37.356;2022-07-29T11:08:27;99252.13;;;24.84;36.55
58239;BME280;44037;55.638;37.356;2022-07-29T11:14:06;99246.81;;;25.16;35.81
58239;BME280;44037;55.638;37.356;2022-07-29T11:17:00;99244.78;;;25.52;34.70
58239;BME280;44037;55.638;37.356;2022-07-29T11:19:30;99234.09;;;25.68;34.09
58239;BME280;44037;55.638;37.356;2022-07-29T11:21:59;99244.41;;;25.58;34.46
58239;BME280;44037;55.638;37.356;2022-07-29T11:24:28;99243.66;;;25.40;34.23
58239;BME280;44037;55.638;37.356;2022-07-29T11:27:13;99243.16;;;25.49;34.73
58239;BME280;44037;55.638;37.356;2022-07-29T11:29:50;99228.03;;;25.66;34.06
58239;BME280;44037;55.638;37.356;2022-07-29T11:32:18;99244.19;;;25.47;34.78
58239;BME280;44037;55.638;37.356;2022-07-29T11:34:47;99239.69;;;25.33;35.64
58239;BME280;44037;55.638;37.356;2022-07-29T11:37:23;99247.88;;;25.44;35.61
58239;BME280;44037;55.638;37.356;2022-07-29T11:40:13;99246.28;;;25.56;35.76
58239;BME280;44037;55.638;37.356;2022-07-29T11:42:43;99247.28;;;25.69;35.96
58239;BME280;44037;55.638;37.356;2022-07-29T11:45:16;99248.91;;;26.01;35.19
58239;BME280;44037;55.638;37.356;2022-07-29T11:47:50;99242.69;;;26.31;34.86
58239;BME280;44037;55.638;37.356;2022-07-29T11:50:30;99247.06;;;26.46;33.99
58239;BME280;44037;55.638;37.356;2022-07-29T11:53:01;99245.91;;;26.21;34.67
58239;BME280;44037;55.638;37.356;2022-07-29T11:55:28;99242.31;;;26.08;35.51
58239;BME280;44037;55.638;37.356;2022-07-29T11:57:58;99244.59;;;26.14;35.29
58239;BME280;44037;55.638;37.356;2022-07-29T12:00:30;99248.97;;;26.15;34.89
58239;BME280;44037;55.638;37.356;2022-07-29T12:03:00;99245.31;;;25.87;34.02
58239;BME280;44037;55.638;37.356;2022-07-29T12:05:36;99232.97;;;25.86;34.33
58239;BME280;44037;55.638;37.356;2022-07-29T12:08:10;99241.13;;;25.98;34.08
58239;BME280;44037;55.638;37.356;2022-07-29T12:10:38;99232.84;;;26.18;34.40
58239;BME280;44037;55.638;37.356;2022-07-29T12:13:06;99225.22;;;26.41;34.44
58239;BME280;44037;55.638;37.356;2022-07-29T12:15:35;99232.13;;;26.44;33.75
58239;BME280;44037;55.638;37.356;2022-07-29T12:18:15;99232.53;;;26.37;34.38
58239;BME280;44037;55.638;37.356;2022-07-29T12:20:43;99233.09;;;26.43;34.68
58239;BME280;44037;55.638;37.356;2022-07-29T12:23:13;99235.38;;;26.49;34.81
58239;BME280;44037;55.638;37.356;2022-07-29T12:25:43;99234.34;;;26.37;34.35
58239;BME280;44037;55.638;37.356;2022-07-29T12:28:13;99231.69;;;26.08;34.99
58239;BME280;44037;55.638;37.356;2022-07-29T12:30:43;99235.00;;;25.97;34.97
58239;BME280;44037;55.638;37.356;2022-07-29T12:33:19;99238.28;;;25.86;35.51
58239;BME280;44037;55.638;37.356;2022-07-29T12:35:47;99244.16;;;25.77;35.72
58239;BME280;44037;55.638;37.356;2022-07-29T12:38:16;99234.00;;;25.39;35.77
58239;BME280;44037;55.638;37.356;2022-07-29T12:40:45;99232.88;;;25.12;36.75
58239;BME280;44037;55.638;37.356;2022-07-29T12:43:14;99237.31;;;25.12;37.38
58239;BME280;44037;55.638;37.356;2022-07-29T12:45:42;99234.91;;;25.23;37.09
58239;BME280;44037;55.638;37.356;2022-07-29T12:48:10;99232.06;;;25.26;36.90
58239;BME280;44037;55.638;37.356;2022-07-29T12:50:55;99230.53;;;25.22;36.58
58239;BME280;44037;55.638;37.356;2022-07-29T12:53:25;99238.47;;;25.38;36.89
58239;BME280;44037;55.638;37.356;2022-07-29T12:55:54;99235.38;;;25.46;36.65
58239;BME280;44037;55.638;37.356;2022-07-29T12:58:29;99232.47;;;25.35;35.92
58239;BME280;44037;55.638;37.356;2022-07-29T13:01:04;99231.69;;;25.18;36.94
58239;BME280;44037;55.638;37.356;2022-07-29T13:03:51;99229.09;;;25.17;36.92
58239;BME280;44037;55.638;37.356;2022-07-29T13:06:33;99223.22;;;24.95;37.20